Time;durP1;ratioP1;P1;durP2;ratioP2;P2;SDS_P1;SDS_P2;PMS_P1;PMS_P2;Temp;Humidity;BMP_temperature;BMP_pressure;BME280_temperature;BME280_humidity;BME280_pressure;Samples;Min_cycle;Max_cycle;Signal;HPM_P1;HPM_P2
2023/04/07 00:02:11;;;;;;;14.40;8.25;;;7.10;69.20;;;;;;5011156;28;20061;-71
2023/04/07 00:04:37;;;;;;;14.88;9.18;;;7.10;69.20;;;;;;5010304;28;20584;-71
2023/04/07 00:07:02;;;;;;;12.48;8.32;;;7.10;69.20;;;;;;5012982;28;20120;-71
2023/04/07 00:09:28;;;;;;;12.18;9.07;;;7.10;69.30;;;;;;5007751;28;20163;-71
2023/04/07 00:11:55;;;;;;;13.85;8.88;;;7.10;69.30;;;;;;5011591;28;20029;-71
2023/04/07 00:14:20;;;;;;;14.25;8.65;;;7.10;69.40;;;;;;5010210;28;20030;-70
2023/04/07 00:16:46;;;;;;;12.52;8.52;;;7.10;69.30;;;;;;5009383;28;20123;-70
2023/04/07 00:19:11;;;;;;;11.85;7.75;;;7.00;69.30;;;;;;5008879;28;20057;-70
2023/04/07 00:21:37;;;;;;;11.35;8.88;;;7.00;69.30;;;;;;5010048;28;20033;-70
2023/04/07 00:24:03;;;;;;;11.23;7.70;;;7.00;69.30;;;;;;5009671;28;20095;-70
2023/04/07 00:26:31;;;;;;;11.75;8.18;;;6.90;69.30;;;;;;5010879;28;20029;-70
2023/04/07 00:28:57;;;;;;;13.50;8.40;;;6.90;69.20;;;;;;5013702;28;20033;-71
2023/04/07 00:31:23;;;;;;;11.43;8.35;;;6.80;69.20;;;;;;5013348;28;20033;-71
2023/04/07 00:33:49;;;;;;;12.35;8.23;;;6.90;69.30;;;;;;5012996;28;20540;-71
2023/04/07 00:36:14;;;;;;;10.18;7.32;;;6.90;69.10;;;;;;5014525;28;20030;-71
2023/04/07 00:38:40;;;;;;;10.38;7.32;;;6.90;69.00;;;;;;5017043;28;20021;-71
2023/04/07 00:41:06;;;;;;;10.93;7.75;;;6.90;68.90;;;;;;5014141;28;20052;-71
2023/04/07 00:43:31;;;;;;;10.82;7.20;;;6.90;68.90;;;;;;5015439;28;20571;-70
2023/04/07 00:45:57;;;;;;;11.90;7.60;;;6.90;68.70;;;;;;5014302;28;20044;-71
2023/04/07 00:48:24;;;;;;;9.23;6.72;;;6.80;68.60;;;;;;5010783;28;20033;-70
2023/04/07 00:50:50;;;;;;;11.57;6.85;;;6.80;68.50;;;;;;5015400;28;20041;-70
2023/04/07 00:53:16;;;;;;;9.35;6.63;;;6.80;68.30;;;;;;5010974;28;20033;-70
2023/04/07 00:55:42;;;;;;;7.88;5.85;;;6.80;68.30;;;;;;5016265;28;20057;-70
2023/04/07 00:58:08;;;;;;;10.50;6.22;;;6.80;68.20;;;;;;5014199;28;20053;-70
2023/04/07 01:00:41;;;;;;;11.48;6.07;;;6.70;68.00;;;;;;5014079;28;20457;-70
2023/04/07 01:03:20;;;;;;;8.63;5.93;;;6.70;67.90;;;;;;5011983;28;20040;-70
2023/04/07 01:06:01;;;;;;;10.63;5.38;;;6.70;67.80;;;;;;5013729;28;20128;-70
2023/04/07 01:09:02;;;;;;;7.38;5.53;;;6.70;67.70;;;;;;5011894;28;20049;-70
2023/04/07 01:11:50;;;;;;;9.73;6.10;;;6.70;67.70;;;;;;5009371;28;20375;-70
2023/04/07 01:14:18;;;;;;;9.55;5.90;;;6.70;67.60;;;;;;5013292;28;20033;-71
2023/04/07 01:16:50;;;;;;;9.38;5.82;;;6.70;68.10;;;;;;5011273;28;20103;-71
2023/04/07 01:19:44;;;;;;;9.05;5.80;;;6.70;67.60;;;;;;5013281;28;20311;-70
2023/04/07 01:22:13;;;;;;;11.68;5.80;;;6.70;67.50;;;;;;5012745;28;20376;-70
2023/04/07 01:24:50;;;;;;;9.15;6.55;;;6.70;67.50;;;;;;5014728;28;20038;-70
2023/04/07 01:27:40;;;;;;;10.00;6.00;;;6.70;67.60;;;;;;5012195;28;20032;-70
2023/04/07 01:30:10;;;;;;;8.85;5.90;;;6.70;67.60;;;;;;5012480;28;20384;-71
2023/04/07 01:32:38;;;;;;;9.15;5.93;;;6.70;67.60;;;;;;5012789;28;20120;-70
2023/04/07 01:35:08;;;;;;;9.38;6.53;;;6.70;67.70;;;;;;5012733;28;20060;-70
2023/04/07 01:37:36;;;;;;;12.75;7.13;;;6.70;67.70;;;;;;5014594;28;20527;-71
2023/04/07 01:40:04;;;;;;;10.35;7.07;;;6.70;68.20;;;;;;5011673;28;20696;-70
2023/04/07 01:42:31;;;;;;;11.35;6.65;;;6.70;67.70;;;;;;5010310;28;20030;-70
2023/04/07 01:45:00;;;;;;;11.23;7.55;;;6.70;67.80;;;;;;5014578;28;20032;-71
2023/04/07 01:47:29;;;;;;;10.25;6.28;;;6.70;67.80;;;;;;5011649;28;20091;-70
2023/04/07 01:49:57;;;;;;;9.32;6.03;;;6.70;67.80;;;;;;5012689;28;20579;-70
2023/04/07 01:52:25;;;;;;;10.90;6.68;;;6.70;67.80;;;;;;5012004;28;20040;-71
2023/04/07 01:54:51;;;;;;;9.65;6.50;;;6.70;67.80;;;;;;5012414;28;20422;-71
2023/04/07 01:57:16;;;;;;;10.70;6.30;;;6.60;67.90;;;;;;5012603;28;20033;-71
2023/04/07 01:59:42;;;;;;;9.93;5.40;;;6.60;67.90;;;;;;5012498;28;22403;-71
2023/04/07 02:02:07;;;;;;;7.18;5.70;;;6.60;67.90;;;;;;5026335;28;20025;-71
2023/04/07 02:04:44;;;;;;;8.93;5.80;;;6.60;67.90;;;;;;5012618;28;20044;-71
2023/04/07 02:07:19;;;;;;;8.32;5.68;;;6.50;68.00;;;;;;5013624;28;20025;-71
2023/04/07 02:09:47;;;;;;;11.02;6.15;;;6.50;68.10;;;;;;5011987;28;20037;-71
2023/04/07 02:12:15;;;;;;;9.77;5.93;;;6.50;68.10;;;;;;5012047;28;20041;-71
2023/04/07 02:14:42;;;;;;;8.57;5.80;;;6.50;68.10;;;;;;5010896;28;20033;-71
2023/04/07 02:17:09;;;;;;;10.75;6.45;;;6.40;68.30;;;;;;5011616;28;20041;-71
2023/04/07 02:19:35;;;;;;;11.60;5.93;;;6.50;68.30;;;;;;5013112;28;20037;-71
2023/04/07 02:22:03;;;;;;;9.00;6.07;;;6.40;68.40;;;;;;5010754;28;20040;-70
2023/04/07 02:24:29;;;;;;;10.23;6.32;;;6.40;68.40;;;;;;5011484;28;20034;-71
2023/04/07 02:26:56;;;;;;;8.25;5.47;;;6.30;68.40;;;;;;5012736;28;20375;-70
2023/04/07 02:29:21;;;;;;;7.65;5.53;;;6.30;68.50;;;;;;5012408;28;20072;-70
2023/04/07 02:31:47;;;;;;;8.30;5.35;;;6.30;68.70;;;;;;5011028;28;20164;-71
2023/04/07 02:34:13;;;;;;;7.60;5.57;;;6.30;68.70;;;;;;5023149;28;20048;-70
2023/04/07 02:36:38;;;;;;;8.25;6.20;;;6.30;68.90;;;;;;5012670;28;20076;-69
2023/04/07 02:39:04;;;;;;;8.48;6.32;;;6.30;68.90;;;;;;5011075;28;20143;-70
2023/04/07 02:41:30;;;;;;;12.55;6.65;;;6.30;68.90;;;;;;5011133;28;20034;-71
2023/04/07 02:43:55;;;;;;;7.30;5.43;;;6.30;69.00;;;;;;5014877;28;20041;-71
2023/04/07 02:46:21;;;;;;;9.85;6.05;;;6.30;69.00;;;;;;5010341;28;20033;-71
2023/04/07 02:48:46;;;;;;;9.98;6.22;;;6.30;69.10;;;;;;5010516;28;20029;-71
2023/04/07 02:51:12;;;;;;;9.40;5.80;;;6.30;69.60;;;;;;5010971;28;20481;-70
2023/04/07 02:53:38;;;;;;;8.98;5.88;;;6.30;69.20;;;;;;5011396;28;20155;-71
2023/04/07 02:56:03;;;;;;;9.90;6.57;;;6.20;69.10;;;;;;5009901;28;20034;-71
2023/04/07 02:58:29;;;;;;;8.85;6.47;;;6.30;69.30;;;;;;5010150;28;20037;-71
2023/04/07 03:00:55;;;;;;;8.55;5.47;;;6.30;69.30;;;;;;5019831;28;20057;-71
2023/04/07 03:03:20;;;;;;;9.52;6.28;;;6.30;69.30;;;;;;5011298;28;20063;-72
2023/04/07 03:05:46;;;;;;;8.68;6.05;;;6.30;69.30;;;;;;5009315;28;20099;-71
2023/04/07 03:08:12;;;;;;;9.52;6.07;;;6.30;69.30;;;;;;5010458;28;20025;-71
2023/04/07 03:10:37;;;;;;;8.50;5.88;;;6.30;69.40;;;;;;5009201;28;20041;-71
2023/04/07 03:13:03;;;;;;;9.05;5.88;;;6.30;69.40;;;;;;5012008;28;20026;-71
2023/04/07 03:15:28;;;;;;;12.00;6.65;;;6.30;69.50;;;;;;5010343;28;20143;-71
2023/04/07 03:17:54;;;;;;;10.73;6.50;;;6.20;69.50;;;;;;5010778;28;20389;-71
2023/04/07 03:20:19;;;;;;;9.75;6.00;;;6.20;69.60;;;;;;5009946;28;20477;-71
2023/04/07 03:22:46;;;;;;;7.63;5.28;;;6.20;69.60;;;;;;5011460;28;20028;-71
2023/04/07 03:25:12;;;;;;;8.18;5.68;;;6.20;69.70;;;;;;5011225;28;20038;-71
2023/04/07 03:27:37;;;;;;;10.88;6.35;;;6.20;69.80;;;;;;5011251;28;20022;-71
2023/04/07 03:30:03;;;;;;;9.43;5.72;;;6.20;69.90;;;;;;5009483;28;20042;-71
2023/04/07 03:32:29;;;;;;;8.02;5.57;;;6.20;69.80;;;;;;5011525;28;20060;-71
2023/04/07 03:34:55;;;;;;;9.75;6.07;;;6.20;69.90;;;;;;5009546;28;20156;-70
2023/04/07 03:37:21;;;;;;;8.75;6.35;;;6.20;69.90;;;;;;5009562;28;20030;-71
2023/04/07 03:39:47;;;;;;;11.27;6.35;;;6.30;70.00;;;;;;5009459;28;20044;-71
2023/04/07 03:42:13;;;;;;;10.48;5.82;;;6.30;70.00;;;;;;5010836;28;20036;-71
2023/04/07 03:44:38;;;;;;;9.18;5.57;;;6.30;70.60;;;;;;5009998;28;20030;-70
2023/04/07 03:47:04;;;;;;;10.35;6.28;;;6.30;70.10;;;;;;5009572;28;20033;-71
2023/04/07 03:49:30;;;;;;;9.77;6.15;;;6.40;70.20;;;;;;5008374;28;20026;-70
2023/04/07 03:51:56;;;;;;;10.93;6.65;;;6.40;70.20;;;;;;5010920;28;20035;-70
2023/04/07 03:54:22;;;;;;;10.43;7.00;;;6.40;70.50;;;;;;5010096;28;20026;-71
2023/04/07 03:56:48;;;;;;;9.55;6.95;;;6.40;70.20;;;;;;5008753;28;20032;-70
2023/04/07 03:59:13;;;;;;;10.98;7.30;;;6.40;70.30;;;;;;5010462;28;20165;-70
2023/04/07 04:01:39;;;;;;;9.18;6.90;;;6.50;70.40;;;;;;5009744;28;20508;-70
2023/04/07 04:04:05;;;;;;;12.40;7.32;;;6.40;70.80;;;;;;5014681;28;20044;-70
2023/04/07 04:06:30;;;;;;;13.52;6.93;;;6.50;70.40;;;;;;5014670;28;20490;-70
2023/04/07 04:08:56;;;;;;;10.98;6.85;;;6.50;70.40;;;;;;5014204;28;20025;-71
2023/04/07 04:11:22;;;;;;;12.93;7.55;;;6.50;70.50;;;;;;5022260;28;20073;-71
2023/04/07 04:13:47;;;;;;;10.07;7.38;;;6.50;70.60;;;;;;5015134;28;20036;-71
2023/04/07 04:16:13;;;;;;;11.43;7.43;;;6.50;70.50;;;;;;5013958;28;20116;-70
2023/04/07 04:18:38;;;;;;;12.30;7.30;;;6.50;70.50;;;;;;5013224;28;20103;-70
2023/04/07 04:21:04;;;;;;;12.10;6.50;;;6.50;70.50;;;;;;5013123;28;20065;-70
2023/04/07 04:23:30;;;;;;;11.13;7.28;;;6.50;70.50;;;;;;5011981;28;20037;-70
2023/04/07 04:25:56;;;;;;;9.80;6.95;;;6.60;70.60;;;;;;5015548;28;20175;-70
2023/04/07 04:28:22;;;;;;;11.57;7.30;;;6.60;70.60;;;;;;5011981;28;20076;-70
2023/04/07 04:30:47;;;;;;;10.68;6.85;;;6.60;70.70;;;;;;5014602;28;20049;-70
2023/04/07 04:33:13;;;;;;;8.90;6.15;;;6.50;70.70;;;;;;5013230;28;20056;-70
2023/04/07 04:35:38;;;;;;;10.85;6.60;;;6.60;70.70;;;;;;5014059;28;20123;-69
2023/04/07 04:38:04;;;;;;;9.52;6.50;;;6.60;70.70;;;;;;5009499;28;20033;-70
2023/04/07 04:40:30;;;;;;;9.02;6.32;;;6.60;70.70;;;;;;5015657;28;20119;-68
2023/04/07 04:42:55;;;;;;;8.95;5.28;;;6.60;70.70;;;;;;5013267;28;20026;-67
2023/04/07 04:45:21;;;;;;;9.00;6.40;;;6.50;70.70;;;;;;5014524;28;20411;-69
2023/04/07 04:47:46;;;;;;;9.98;6.15;;;6.60;70.90;;;;;;5013222;28;20025;-69
2023/04/07 04:50:12;;;;;;;10.50;6.43;;;6.60;71.00;;;;;;5016888;28;20030;-69
2023/04/07 04:52:38;;;;;;;8.90;5.78;;;6.60;71.00;;;;;;5012354;28;20037;-68
2023/04/07 04:55:04;;;;;;;11.50;5.97;;;6.60;71.00;;;;;;5015113;28;20068;-69
2023/04/07 04:57:30;;;;;;;8.48;6.00;;;6.60;71.00;;;;;;5016092;28;20033;-68
2023/04/07 04:59:55;;;;;;;10.80;6.70;;;6.60;71.00;;;;;;5014773;28;20045;-68
2023/04/07 05:02:21;;;;;;;11.85;6.70;;;6.70;71.10;;;;;;5011290;28;20473;-68
2023/04/07 05:04:47;;;;;;;8.23;5.90;;;6.60;71.10;;;;;;5010929;28;20022;-68
2023/04/07 05:07:12;;;;;;;8.80;6.68;;;6.70;71.20;;;;;;5012738;28;20033;-69
2023/04/07 05:09:38;;;;;;;9.85;6.93;;;6.70;71.20;;;;;;5013273;28;20041;-68
2023/04/07 05:12:04;;;;;;;10.45;6.13;;;6.60;71.30;;;;;;5011909;28;20054;-67
2023/04/07 05:14:29;;;;;;;11.38;6.78;;;6.60;71.50;;;;;;5011267;28;20396;-67
2023/04/07 05:16:55;;;;;;;10.60;6.93;;;6.60;71.60;;;;;;5012902;28;20037;-69
2023/04/07 05:19:21;;;;;;;10.00;6.75;;;6.50;71.70;;;;;;5012566;28;20037;-68
2023/04/07 05:21:46;;;;;;;10.57;6.65;;;6.50;71.70;;;;;;5028559;28;20463;-68
2023/04/07 05:24:12;;;;;;;10.10;6.93;;;6.40;71.70;;;;;;5010456;28;20508;-69
2023/04/07 05:26:38;;;;;;;12.23;6.90;;;6.50;71.90;;;;;;5013126;28;20111;-68
2023/04/07 05:29:03;;;;;;;11.93;8.07;;;6.40;72.00;;;;;;5011524;28;20672;-67
2023/04/07 05:31:29;;;;;;;8.60;6.65;;;6.40;72.10;;;;;;5014084;28;20078;-68
2023/04/07 05:33:54;;;;;;;8.98;6.90;;;6.50;72.20;;;;;;5012182;28;20406;-68
2023/04/07 05:36:20;;;;;;;10.70;6.07;;;6.50;72.20;;;;;;5011552;28;20128;-68
2023/04/07 05:38:46;;;;;;;11.57;7.03;;;6.50;72.30;;;;;;5011868;28;20049;-68
2023/04/07 05:41:11;;;;;;;9.73;6.18;;;6.40;72.30;;;;;;5013016;28;20473;-68
2023/04/07 05:43:37;;;;;;;9.68;7.15;;;6.50;72.40;;;;;;5011729;28;20136;-68
2023/04/07 05:46:02;;;;;;;10.90;7.22;;;6.50;72.50;;;;;;5012429;28;20050;-68
2023/04/07 05:48:28;;;;;;;9.35;6.55;;;6.50;72.60;;;;;;5012166;28;21501;-68
2023/04/07 05:50:54;;;;;;;11.20;6.93;;;6.50;72.70;;;;;;5012663;28;20043;-68
2023/04/07 05:53:20;;;;;;;9.38;6.10;;;6.60;72.80;;;;;;5011513;28;20635;-68
2023/04/07 05:55:45;;;;;;;9.55;6.32;;;6.60;72.80;;;;;;5011092;28;20026;-68
2023/04/07 05:58:11;;;;;;;10.30;6.75;;;6.70;72.90;;;;;;5019081;28;20029;-68
2023/04/07 06:00:37;;;;;;;9.35;7.07;;;6.70;72.90;;;;;;5010828;28;20046;-68
2023/04/07 06:03:02;;;;;;;15.15;7.28;;;6.70;72.80;;;;;;5012778;28;20036;-68
2023/04/07 06:05:28;;;;;;;13.93;7.47;;;6.80;72.80;;;;;;5012471;28;20103;-68
2023/04/07 06:07:53;;;;;;;9.63;7.50;;;6.80;72.90;;;;;;5012833;28;20493;-68
2023/04/07 06:10:19;;;;;;;11.05;7.55;;;6.80;73.00;;;;;;5009772;28;20040;-70
2023/04/07 06:12:45;;;;;;;10.55;6.95;;;6.80;72.90;;;;;;5008888;28;20721;-68
2023/04/07 06:15:11;;;;;;;10.27;7.05;;;6.80;73.00;;;;;;5006230;28;20030;-70
2023/04/07 06:17:36;;;;;;;11.63;7.00;;;6.80;73.00;;;;;;5011749;28;20079;-70
2023/04/07 06:20:03;;;;;;;11.52;7.85;;;6.80;73.30;;;;;;5012604;28;21238;-69
2023/04/07 06:22:28;;;;;;;11.73;7.50;;;6.80;73.40;;;;;;5010434;28;20052;-69
2023/04/07 06:24:54;;;;;;;10.85;7.85;;;6.80;73.30;;;;;;5012587;28;20113;-69
2023/04/07 06:27:21;;;;;;;10.43;6.90;;;6.80;73.40;;;;;;5009095;28;20041;-70
2023/04/07 06:29:46;;;;;;;9.52;6.47;;;6.80;73.90;;;;;;5012048;28;20381;-69
2023/04/07 06:32:12;;;;;;;10.05;7.43;;;6.80;73.60;;;;;;5010674;28;21502;-68
2023/04/07 06:34:38;;;;;;;10.32;7.00;;;6.80;73.60;;;;;;5011571;28;20505;-69
2023/04/07 06:37:04;;;;;;;11.52;7.22;;;6.80;73.60;;;;;;5010883;28;20030;-68
2023/04/07 06:39:30;;;;;;;13.05;8.07;;;6.90;74.00;;;;;;5010778;28;20068;-70
2023/04/07 06:41:56;;;;;;;12.55;7.97;;;6.80;74.00;;;;;;5012410;28;20541;-70
2023/04/07 06:44:22;;;;;;;9.88;6.82;;;6.80;74.10;;;;;;5010506;28;20037;-69
2023/04/07 06:46:51;;;;;;;11.43;7.57;;;6.70;74.20;;;;;;5008814;28;20026;-69
2023/04/07 06:49:18;;;;;;;10.65;7.20;;;6.70;74.60;;;;;;5011812;28;20042;-69
2023/04/07 06:51:43;;;;;;;13.65;8.40;;;6.60;74.60;;;;;;5013808;28;20045;-70
2023/04/07 06:54:12;;;;;;;12.85;7.85;;;6.60;75.00;;;;;;5010366;28;20026;-69
2023/04/07 06:56:38;;;;;;;10.95;7.07;;;6.60;75.00;;;;;;5009497;28;20107;-70
2023/04/07 06:59:04;;;;;;;9.77;7.65;;;6.60;74.90;;;;;;5012319;28;20104;-71
2023/04/07 07:01:30;;;;;;;11.70;8.18;;;6.70;75.30;;;;;;5010302;28;20099;-70
2023/04/07 07:03:55;;;;;;;10.40;7.68;;;6.70;75.30;;;;;;5010372;28;20025;-70
2023/04/07 07:06:21;;;;;;;11.75;7.13;;;6.70;75.50;;;;;;5008959;28;20319;-70
2023/04/07 07:08:46;;;;;;;10.35;7.20;;;6.70;75.40;;;;;;5011013;28;20064;-70
2023/04/07 07:11:12;;;;;;;11.55;7.55;;;6.80;75.50;;;;;;5009843;28;20033;-70
2023/04/07 07:13:38;;;;;;;11.10;7.97;;;6.80;76.10;;;;;;5009964;28;20040;-70
2023/04/07 07:16:04;;;;;;;12.35;7.80;;;6.80;75.80;;;;;;5012221;28;20022;-71
2023/04/07 07:18:29;;;;;;;12.45;7.47;;;6.80;75.90;;;;;;5010366;28;20048;-70
2023/04/07 07:20:55;;;;;;;11.48;7.15;;;6.90;75.90;;;;;;5012690;28;20034;-70
2023/04/07 07:23:21;;;;;;;12.80;6.95;;;6.90;76.20;;;;;;5012954;28;20034;-70
2023/04/07 07:25:46;;;;;;;12.90;8.20;;;7.00;76.00;;;;;;5009525;28;20419;-70
2023/04/07 07:28:12;;;;;;;12.35;8.07;;;7.00;76.00;;;;;;5010644;28;20087;-70
2023/04/07 07:30:40;;;;;;;9.38;7.18;;;7.00;76.00;;;;;;5012301;28;20137;-70
2023/04/07 07:33:05;;;;;;;11.23;7.03;;;7.10;76.20;;;;;;5010679;28;20384;-70
2023/04/07 07:35:31;;;;;;;11.32;7.65;;;7.20;76.20;;;;;;5008727;28;20038;-70
2023/04/07 07:37:57;;;;;;;9.77;7.28;;;7.20;76.00;;;;;;5011736;28;20111;-68
2023/04/07 07:40:22;;;;;;;9.07;6.60;;;7.30;75.90;;;;;;5010745;28;20056;-70
2023/04/07 07:42:48;;;;;;;10.70;7.40;;;7.40;75.90;;;;;;5010143;28;20033;-70
2023/04/07 07:45:14;;;;;;;11.57;7.72;;;7.40;75.50;;;;;;5009838;28;20120;-70
2023/04/07 07:47:40;;;;;;;9.15;6.30;;;7.50;75.50;;;;;;5010357;28;20038;-70
2023/04/07 07:50:06;;;;;;;9.07;6.35;;;7.60;75.30;;;;;;5006839;28;20041;-69
2023/04/07 07:52:32;;;;;;;8.65;6.60;;;7.80;75.10;;;;;;5009063;28;20029;-69
2023/04/07 07:54:57;;;;;;;12.85;7.03;;;7.90;75.00;;;;;;5019565;28;20033;-70
2023/04/07 07:57:23;;;;;;;9.43;6.78;;;8.00;74.60;;;;;;5008536;28;20415;-69
2023/04/07 07:59:48;;;;;;;10.20;6.90;;;8.00;74.20;;;;;;5009695;28;20045;-69
2023/04/07 08:02:14;;;;;;;10.20;7.20;;;8.00;74.20;;;;;;5009195;28;20113;-70
2023/04/07 08:04:40;;;;;;;11.10;6.43;;;8.10;73.60;;;;;;5010639;28;20060;-69
2023/04/07 08:07:06;;;;;;;10.93;6.20;;;8.10;73.50;;;;;;5008055;28;20026;-70
2023/04/07 08:09:31;;;;;;;9.82;5.93;;;8.20;72.80;;;;;;5009192;28;20046;-70
2023/04/07 08:11:57;;;;;;;9.70;6.38;;;8.20;72.40;;;;;;5006600;28;20061;-70
2023/04/07 08:14:50;;;;;;;12.63;6.95;;;8.30;72.30;;;;;;5009478;28;20084;-70
2023/04/07 08:17:16;;;;;;;9.75;6.13;;;8.40;72.00;;;;;;5006999;28;20029;-70
2023/04/07 08:19:42;;;;;;;8.93;5.90;;;8.50;71.30;;;;;;5009031;28;20060;-70
2023/04/07 08:22:07;;;;;;;8.40;5.38;;;8.50;69.80;;;;;;5010834;28;21202;-69
2023/04/07 08:24:33;;;;;;;8.55;6.30;;;8.50;69.50;;;;;;5009721;28;20033;-69
2023/04/07 08:27:00;;;;;;;8.38;5.40;;;8.50;69.30;;;;;;5009303;28;20068;-69
2023/04/07 08:29:25;;;;;;;10.27;5.60;;;8.60;69.70;;;;;;5018878;28;20040;-69
2023/04/07 08:31:51;;;;;;;8.60;5.72;;;8.60;69.40;;;;;;5008776;28;20037;-70
2023/04/07 08:34:19;;;;;;;10.98;6.65;;;8.50;68.20;;;;;;5010406;28;20053;-69
2023/04/07 08:36:45;;;;;;;9.63;5.28;;;8.60;68.80;;;;;;5009055;28;20044;-69
2023/04/07 08:39:11;;;;;;;8.23;5.72;;;8.60;68.50;;;;;;5009061;28;20056;-70
2023/04/07 08:41:39;;;;;;;8.18;5.18;;;8.60;68.40;;;;;;5009872;28;20025;-69
2023/04/07 08:44:06;;;;;;;11.57;5.65;;;8.60;67.90;;;;;;5009162;28;20477;-70
2023/04/07 08:46:33;;;;;;;9.45;5.07;;;8.60;67.10;;;;;;5008756;28;20041;-70
2023/04/07 08:49:00;;;;;;;8.07;5.13;;;8.50;66.90;;;;;;5010326;28;21907;-70
2023/04/07 08:51:31;;;;;;;9.07;6.03;;;8.50;67.10;;;;;;5012751;28;20044;-69
2023/04/07 08:54:06;;;;;;;7.78;4.93;;;8.50;66.30;;;;;;5013273;28;20041;-72
2023/04/07 08:56:35;;;;;;;;;;;8.60;66.80;;;;;;5014147;28;20132;-69
2023/04/07 08:59:01;;;;;;;9.45;5.72;;;8.50;65.70;;;;;;5009160;28;19975;-71
2023/04/07 09:01:28;;;;;;;8.60;4.93;;;8.40;65.30;;;;;;4998327;28;20057;-70
2023/04/07 09:03:56;;;;;;;7.85;4.90;;;8.40;65.10;;;;;;5013090;28;20449;-71
2023/04/07 09:06:22;;;;;;;7.40;4.80;;;8.40;64.40;;;;;;5012989;28;20025;-71
2023/04/07 09:08:48;;;;;;;8.23;5.65;;;8.20;65.10;;;;;;5012828;28;20036;-71
2023/04/07 09:11:14;;;;;;;12.15;5.00;;;8.20;64.80;;;;;;5011698;28;20472;-71
2023/04/07 09:13:39;;;;;;;7.95;4.57;;;8.20;65.30;;;;;;5014400;28;20092;-73
2023/04/07 09:16:05;;;;;;;9.48;4.97;;;8.30;64.90;;;;;;5014639;28;20029;-70
2023/04/07 09:18:31;;;;;;;8.77;5.03;;;8.30;64.30;;;;;;5010863;28;20044;-67
2023/04/07 09:21:04;;;;;;;9.30;5.10;;;8.20;63.70;;;;;;5011574;28;20034;-68
2023/04/07 09:23:39;;;;;;;9.20;4.65;;;8.20;63.90;;;;;;5012451;28;20024;-70
2023/04/07 09:26:16;;;;;;;;;;;8.20;63.00;;;;;;5024378;28;20029;-68
2023/04/07 09:28:44;;;;;;;9.25;4.78;;;8.20;62.70;;;;;;5013477;28;19917;-69
2023/04/07 09:31:09;;;;;;;7.28;4.65;;;8.10;63.30;;;;;;5011933;28;20057;-69
2023/04/07 09:33:35;;;;;;;6.95;4.40;;;8.00;63.20;;;;;;5012918;28;20371;-67
2023/04/07 09:36:02;;;;;;;7.05;4.70;;;8.00;63.20;;;;;;5012247;28;20439;-68
2023/04/07 09:38:36;;;;;;;8.20;5.10;;;8.00;63.60;;;;;;5012488;28;20029;-68
2023/04/07 09:41:20;;;;;;;7.53;5.30;;;8.00;63.80;;;;;;5012845;28;20140;-68
2023/04/07 09:43:46;;;;;;;7.50;4.90;;;7.90;64.30;;;;;;5011828;28;20473;-70
2023/04/07 09:46:16;;;;;;;9.95;5.20;;;7.90;64.80;;;;;;5011467;28;20037;-70
2023/04/07 09:48:44;;;;;;;8.30;5.55;;;7.90;65.20;;;;;;5012457;28;20034;-70
2023/04/07 09:51:15;;;;;;;11.35;5.25;;;7.90;65.50;;;;;;5010653;28;20042;-71
2023/04/07 09:53:43;;;;;;;9.80;5.18;;;7.90;65.90;;;;;;5014164;28;20037;-70
2023/04/07 09:56:13;;;;;;;7.65;4.85;;;7.90;65.70;;;;;;5011260;28;20052;-71
2023/04/07 09:58:42;;;;;;;11.15;5.25;;;7.90;65.80;;;;;;5012666;28;20422;-71
2023/04/07 10:01:08;;;;;;;9.05;4.78;;;7.90;65.60;;;;;;5013690;28;20450;-68
2023/04/07 10:03:37;;;;;;;7.97;4.82;;;7.90;65.80;;;;;;5013018;28;20022;-70
2023/04/07 10:06:08;;;;;;;7.70;4.22;;;7.90;65.80;;;;;;5012643;28;20038;-67
2023/04/07 10:08:37;;;;;;;6.60;4.50;;;7.80;65.30;;;;;;5011036;28;20033;-66
2023/04/07 10:11:05;;;;;;;6.38;3.63;;;7.90;65.60;;;;;;5011549;28;21370;-66
2023/04/07 10:13:33;;;;;;;8.18;4.53;;;7.90;65.40;;;;;;5011786;28;20026;-66
2023/04/07 10:16:05;;;;;;;6.47;4.32;;;7.80;65.30;;;;;;5010502;28;20605;-65
2023/04/07 10:18:33;;;;;;;7.82;4.43;;;7.80;65.60;;;;;;5011747;28;20033;-67
2023/04/07 10:21:06;;;;;;;6.85;4.18;;;7.80;65.70;;;;;;5010788;28;20034;-67
2023/04/07 10:23:46;;;;;;;6.43;4.05;;;7.70;66.10;;;;;;5015464;28;20044;-67
2023/04/07 10:26:16;;;;;;;6.85;4.50;;;7.70;66.30;;;;;;5011718;28;20433;-67
2023/04/07 10:28:47;;;;;;;6.25;3.75;;;7.70;66.80;;;;;;5011238;28;20084;-66
2023/04/07 10:31:13;;;;;;;6.30;3.40;;;7.70;66.80;;;;;;5012442;28;20402;-67
2023/04/07 10:33:50;;;;;;;6.95;4.15;;;7.70;67.10;;;;;;5011058;28;20033;-67
2023/04/07 10:36:18;;;;;;;7.30;3.92;;;7.70;67.10;;;;;;5011472;28;20036;-66
2023/04/07 10:39:07;;;;;;;6.93;4.95;;;7.70;67.40;;;;;;5010218;28;20029;-66
2023/04/07 10:41:42;;;;;;;8.27;3.88;;;7.80;67.60;;;;;;5014957;28;20151;-66
2023/04/07 10:44:30;;;;;;;5.78;4.25;;;7.90;68.00;;;;;;5010159;28;20176;-66
2023/04/07 10:46:55;;;;;;;6.40;3.63;;;7.90;68.30;;;;;;5009899;28;20576;-66
2023/04/07 10:49:21;;;;;;;5.82;3.83;;;7.90;68.40;;;;;;5011665;28;20030;-66
2023/04/07 10:52:11;;;;;;;6.82;3.60;;;7.90;68.90;;;;;;5011024;28;20060;-66
2023/04/07 10:54:38;;;;;;;4.93;3.60;;;7.90;69.30;;;;;;5011827;28;20133;-66
2023/04/07 10:57:13;;;;;;;7.15;4.13;;;7.80;69.60;;;;;;5013328;28;20039;-67
2023/04/07 10:59:45;;;;;;;5.30;3.00;;;7.80;70.20;;;;;;5010401;28;20054;-69
2023/04/07 11:02:11;;;;;;;6.07;3.53;;;7.80;71.00;;;;;;5009923;28;20041;-69
2023/04/07 11:04:37;;;;;;;5.82;3.65;;;7.80;71.60;;;;;;5012291;28;20026;-69
2023/04/07 11:07:03;;;;;;;6.20;3.67;;;7.80;72.80;;;;;;5009110;28;20042;-69
2023/04/07 11:09:29;;;;;;;5.85;3.63;;;7.80;73.40;;;;;;5011552;28;20784;-69
2023/04/07 11:11:55;;;;;;;5.75;4.00;;;7.80;73.70;;;;;;5009967;28;20473;-69
2023/04/07 11:14:28;;;;;;;5.85;4.10;;;7.90;76.00;;;;;;5010050;28;20163;-70
2023/04/07 11:16:53;;;;;;;6.80;4.43;;;7.90;76.20;;;;;;5011726;28;20037;-70
2023/04/07 11:19:22;;;;;;;6.75;4.18;;;8.00;77.80;;;;;;5008372;28;20765;-69
2023/04/07 11:21:48;;;;;;;8.57;5.43;;;8.10;77.50;;;;;;5012100;28;20037;-70
2023/04/07 11:24:32;;;;;;;9.43;5.47;;;8.10;78.40;;;;;;5009938;28;20084;-69
2023/04/07 11:26:58;;;;;;;7.97;6.10;;;8.10;80.10;;;;;;5009137;28;20068;-69
2023/04/07 11:29:31;;;;;;;7.68;5.75;;;8.00;82.20;;;;;;5011423;28;20121;-69
2023/04/07 11:32:01;;;;;;;10.23;6.90;;;8.00;82.40;;;;;;5010390;28;20433;-69
2023/04/07 11:34:36;;;;;;;12.00;8.88;;;8.00;84.10;;;;;;5010822;28;20187;-72
2023/04/07 11:37:26;;;;;;;13.43;10.73;;;7.90;85.50;;;;;;5009712;28;20247;-72
2023/04/07 11:39:56;;;;;;;14.68;10.50;;;7.80;87.90;;;;;;5010578;28;20029;-71
2023/04/07 11:42:33;;;;;;;15.75;11.00;;;7.70;87.10;;;;;;5009892;28;20029;-73
2023/04/07 11:44:59;;;;;;;14.15;11.30;;;7.60;89.50;;;;;;5010318;28;20060;-72
2023/04/07 11:47:39;;;;;;;16.65;10.10;;;7.50;89.10;;;;;;5010220;28;20715;-72
2023/04/07 11:50:05;;;;;;;17.48;11.68;;;7.50;90.10;;;;;;5011202;28;20440;-72
2023/04/07 11:52:45;;;;;;;13.68;10.18;;;7.50;90.20;;;;;;5010343;28;20116;-72
2023/04/07 11:55:21;;;;;;;15.30;10.95;;;7.50;90.30;;;;;;5010444;28;20489;-72
2023/04/07 11:57:47;;;;;;;14.40;9.82;;;7.60;90.70;;;;;;5009591;28;20034;-72
2023/04/07 12:00:14;;;;;;;13.00;9.70;;;7.60;91.20;;;;;;5010735;28;20412;-72
2023/04/07 12:02:40;;;;;;;12.82;8.55;;;7.60;91.20;;;;;;5009399;28;20127;-72
2023/04/07 12:05:08;;;;;;;13.57;9.02;;;7.60;91.30;;;;;;5010185;28;20037;-71
2023/04/07 12:07:38;;;;;;;11.23;8.20;;;7.60;91.80;;;;;;5010648;28;20108;-73
2023/04/07 12:10:22;;;;;;;11.10;7.82;;;7.50;91.80;;;;;;5009739;28;20034;-73
2023/04/07 12:12:48;;;;;;;11.35;7.65;;;7.60;91.80;;;;;;5009782;28;20147;-73
2023/04/07 12:15:14;;;;;;;11.18;7.82;;;7.60;92.30;;;;;;5010213;28;20077;-73
2023/04/07 12:17:46;;;;;;;10.15;7.68;;;7.60;92.20;;;;;;5010211;28;20083;-73
2023/04/07 12:20:12;;;;;;;10.45;6.80;;;7.70;92.40;;;;;;5010229;28;20042;-72
2023/04/07 12:22:38;;;;;;;12.27;7.90;;;7.70;92.30;;;;;;5011050;28;20018;-72
2023/04/07 12:25:04;;;;;;;10.20;6.13;;;7.60;92.60;;;;;;5011994;28;20498;-73
2023/04/07 12:27:30;;;;;;;10.18;7.03;;;7.50;92.80;;;;;;5033573;28;20052;-72
2023/04/07 12:29:56;;;;;;;11.35;8.15;;;7.50;92.70;;;;;;5025557;28;20041;-73
2023/04/07 12:32:21;;;;;;;11.48;7.57;;;7.50;93.50;;;;;;5013935;28;20621;-71
2023/04/07 12:34:47;;;;;;;11.98;7.07;;;7.50;93.10;;;;;;5013569;28;20388;-72
2023/04/07 12:37:13;;;;;;;10.90;7.60;;;7.50;93.30;;;;;;5013273;28;20029;-71
2023/04/07 12:39:38;;;;;;;12.00;7.72;;;7.50;94.60;;;;;;5013219;28;20076;-71
2023/04/07 12:42:04;;;;;;;11.48;7.13;;;7.50;94.00;;;;;;5013850;28;20021;-71
2023/04/07 12:44:30;;;;;;;12.50;8.20;;;7.40;94.80;;;;;;5012796;28;20120;-71
2023/04/07 12:46:55;;;;;;;12.60;8.23;;;7.40;94.40;;;;;;5014103;28;20033;-71
2023/04/07 12:49:21;;;;;;;12.40;8.30;;;7.30;94.50;;;;;;5011534;28;20384;-72
2023/04/07 12:51:47;;;;;;;12.48;7.97;;;7.30;94.60;;;;;;5014469;28;20465;-73
2023/04/07 12:54:13;;;;;;;9.98;7.13;;;7.30;94.70;;;;;;5013978;28;20072;-73
2023/04/07 12:56:41;;;;;;;12.45;7.93;;;7.40;94.50;;;;;;5011689;28;21047;-72